sensor_id;sensor_type;location;lat;lon;timestamp;temperature;humidity
13148;DHT22;6639;50.956;4.242;2023-06-26T00:00:09;29.40;88.30
13148;DHT22;6639;50.956;4.242;2023-06-26T00:02:36;29.30;88.70
13148;DHT22;6639;50.956;4.242;2023-06-26T00:05:04;29.20;89.20
13148;DHT22;6639;50.956;4.242;2023-06-26T00:07:32;28.90;88.20
13148;DHT22;6639;50.956;4.242;2023-06-26T00:10:01;28.40;88.50
13148;DHT22;6639;50.956;4.242;2023-06-26T00:12:28;28.50;88.60
13148;DHT22;6639;50.956;4.242;2023-06-26T00:14:55;28.50;88.00
13148;DHT22;6639;50.956;4.242;2023-06-26T00:17:22;28.90;86.90
13148;DHT22;6639;50.956;4.242;2023-06-26T00:19:50;28.70;87.20
13148;DHT22;6639;50.956;4.242;2023-06-26T00:22:17;28.80;87.10
13148;DHT22;6639;50.956;4.242;2023-06-26T00:24:44;29.20;86.30
13148;DHT22;6639;50.956;4.242;2023-06-26T00:27:12;29.10;86.10
13148;DHT22;6639;50.956;4.242;2023-06-26T00:29:39;29.10;87.00
13148;DHT22;6639;50.956;4.242;2023-06-26T00:32:06;29.30;87.20
13148;DHT22;6639;50.956;4.242;2023-06-26T00:34:33;29.40;87.60
13148;DHT22;6639;50.956;4.242;2023-06-26T00:37:00;28.90;88.50
13148;DHT22;6639;50.956;4.242;2023-06-26T00:39:27;28.80;89.50
13148;DHT22;6639;50.956;4.242;2023-06-26T00:41:54;28.50;89.70
13148;DHT22;6639;50.956;4.242;2023-06-26T00:44:22;28.10;90.40
13148;DHT22;6639;50.956;4.242;2023-06-26T00:46:49;28.30;90.30
13148;DHT22;6639;50.956;4.242;2023-06-26T00:49:17;28.40;90.20
13148;DHT22;6639;50.956;4.242;2023-06-26T00:51:44;28.50;89.80
13148;DHT22;6639;50.956;4.242;2023-06-26T00:54:11;28.40;89.80
13148;DHT22;6639;50.956;4.242;2023-06-26T00:56:40;28.10;90.10
13148;DHT22;6639;50.956;4.242;2023-06-26T00:59:07;28.30;90.00
13148;DHT22;6639;50.956;4.242;2023-06-26T01:01:35;28.10;89.80
13148;DHT22;6639;50.956;4.242;2023-06-26T01:04:02;27.60;90.30
13148;DHT22;6639;50.956;4.242;2023-06-26T01:06:33;27.60;90.60
13148;DHT22;6639;50.956;4.242;2023-06-26T01:09:01;27.50;90.60
13148;DHT22;6639;50.956;4.242;2023-06-26T01:11:28;27.80;90.40
13148;DHT22;6639;50.956;4.242;2023-06-26T01:13:56;27.50;90.50
13148;DHT22;6639;50.956;4.242;2023-06-26T01:16:24;27.60;90.50
13148;DHT22;6639;50.956;4.242;2023-06-26T01:18:53;27.70;90.40
13148;DHT22;6639;50.956;4.242;2023-06-26T01:21:21;27.60;90.60
13148;DHT22;6639;50.956;4.242;2023-06-26T01:23:57;27.60;90.60
13148;DHT22;6639;50.956;4.242;2023-06-26T01:26:29;27.60;90.70
13148;DHT22;6639;50.956;4.242;2023-06-26T01:28:58;27.20;91.00
13148;DHT22;6639;50.956;4.242;2023-06-26T01:31:27;27.10;91.40
13148;DHT22;6639;50.956;4.242;2023-06-26T01:33:57;27.00;91.90
13148;DHT22;6639;50.956;4.242;2023-06-26T01:36:24;27.30;91.60
13148;DHT22;6639;50.956;4.242;2023-06-26T01:38:51;27.30;91.80
13148;DHT22;6639;50.956;4.242;2023-06-26T01:41:18;27.10;92.00
13148;DHT22;6639;50.956;4.242;2023-06-26T01:44:09;27.20;92.00
13148;DHT22;6639;50.956;4.242;2023-06-26T01:46:42;27.00;92.30
13148;DHT22;6639;50.956;4.242;2023-06-26T01:49:15;26.90;92.60
13148;DHT22;6639;50.956;4.242;2023-06-26T01:51:47;27.10;92.70
13148;DHT22;6639;50.956;4.242;2023-06-26T01:54:19;27.00;92.80
13148;DHT22;6639;50.956;4.242;2023-06-26T01:56:50;27.00;93.00
13148;DHT22;6639;50.956;4.242;2023-06-26T01:59:21;27.10;92.90
13148;DHT22;6639;50.956;4.242;2023-06-26T02:01:48;27.30;92.90
13148;DHT22;6639;50.956;4.242;2023-06-26T02:04:15;27.40;92.80
13148;DHT22;6639;50.956;4.242;2023-06-26T02:06:42;27.00;93.10
13148;DHT22;6639;50.956;4.242;2023-06-26T02:09:09;26.90;93.70
13148;DHT22;6639;50.956;4.242;2023-06-26T02:11:36;26.40;94.10
13148;DHT22;6639;50.956;4.242;2023-06-26T02:14:03;26.40;95.10
13148;DHT22;6639;50.956;4.242;2023-06-26T02:16:31;26.30;95.50
13148;DHT22;6639;50.956;4.242;2023-06-26T02:18:58;26.50;95.50
13148;DHT22;6639;50.956;4.242;2023-06-26T02:21:25;26.20;96.40
13148;DHT22;6639;50.956;4.242;2023-06-26T02:23:52;26.20;97.00
13148;DHT22;6639;50.956;4.242;2023-06-26T02:26:19;26.20;96.80
13148;DHT22;6639;50.956;4.242;2023-06-26T02:28:46;26.10;97.30
13148;DHT22;6639;50.956;4.242;2023-06-26T02:31:13;26.00;97.20
13148;DHT22;6639;50.956;4.242;2023-06-26T02:33:42;26.30;97.50
13148;DHT22;6639;50.956;4.242;2023-06-26T02:36:11;26.20;97.30
13148;DHT22;6639;50.956;4.242;2023-06-26T02:38:37;26.10;97.90
13148;DHT22;6639;50.956;4.242;2023-06-26T02:41:04;26.10;97.90
13148;DHT22;6639;50.956;4.242;2023-06-26T02:43:31;25.80;98.30
13148;DHT22;6639;50.956;4.242;2023-06-26T02:45:58;26.00;98.60
13148;DHT22;6639;50.956;4.242;2023-06-26T02:48:25;25.90;99.10
13148;DHT22;6639;50.956;4.242;2023-06-26T02:50:53;26.20;98.80
13148;DHT22;6639;50.956;4.242;2023-06-26T02:53:20;25.90;98.80
13148;DHT22;6639;50.956;4.242;2023-06-26T02:55:47;25.90;99.40
13148;DHT22;6639;50.956;4.242;2023-06-26T02:58:14;25.80;99.40
13148;DHT22;6639;50.956;4.242;2023-06-26T03:00:41;25.70;99.90
13148;DHT22;6639;50.956;4.242;2023-06-26T03:03:08;25.30;99.90
13148;DHT22;6639;50.956;4.242;2023-06-26T03:05:35;25.60;99.90
13148;DHT22;6639;50.956;4.242;2023-06-26T03:08:04;25.50;99.90
13148;DHT22;6639;50.956;4.242;2023-06-26T03:10:31;25.60;99.90
13148;DHT22;6639;50.956;4.242;2023-06-26T03:12:58;25.50;99.90
13148;DHT22;6639;50.956;4.242;2023-06-26T03:15:25;25.60;99.90
13148;DHT22;6639;50.956;4.242;2023-06-26T03:17:52;25.60;99.90
13148;DHT22;6639;50.956;4.242;2023-06-26T03:20:19;25.70;99.90
13148;DHT22;6639;50.956;4.242;2023-06-26T03:22:46;25.90;99.90
13148;DHT22;6639;50.956;4.242;2023-06-26T03:25:14;25.70;99.90
13148;DHT22;6639;50.956;4.242;2023-06-26T03:27:41;25.20;99.90
13148;DHT22;6639;50.956;4.242;2023-06-26T03:30:09;25.30;99.90
13148;DHT22;6639;50.956;4.242;2023-06-26T03:32:36;25.30;99.90
13148;DHT22;6639;50.956;4.242;2023-06-26T03:35:03;25.30;99.90
13148;DHT22;6639;50.956;4.242;2023-06-26T03:37:30;25.20;99.90
13148;DHT22;6639;50.956;4.242;2023-06-26T03:39:57;25.60;99.90
13148;DHT22;6639;50.956;4.242;2023-06-26T03:42:26;25.40;99.90
13148;DHT22;6639;50.956;4.242;2023-06-26T03:44:52;25.20;99.90
13148;DHT22;6639;50.956;4.242;2023-06-26T03:47:19;24.80;99.90
13148;DHT22;6639;50.956;4.242;2023-06-26T03:49:46;25.00;99.90
13148;DHT22;6639;50.956;4.242;2023-06-26T03:52:13;24.70;99.90
13148;DHT22;6639;50.956;4.242;2023-06-26T03:54:40;24.90;99.90
13148;DHT22;6639;50.956;4.242;2023-06-26T03:57:07;25.40;99.90
13148;DHT22;6639;50.956;4.242;2023-06-26T03:59:36;25.40;99.90
13148;DHT22;6639;50.956;4.242;2023-06-26T04:02:03;25.10;99.90
13148;DHT22;6639;50.956;4.242;2023-06-26T04:04:30;25.00;99.90
13148;DHT22;6639;50.956;4.242;2023-06-26T04:06:57;25.00;99.90
13148;DHT22;6639;50.956;4.242;2023-06-26T04:09:24;25.30;99.90
13148;DHT22;6639;50.956;4.242;2023-06-26T04:11:51;25.20;99.90
13148;DHT22;6639;50.956;4.242;2023-06-26T04:14:18;25.40;99.90
13148;DHT22;6639;50.956;4.242;2023-06-26T04:16:46;24.80;99.90
13148;DHT22;6639;50.956;4.242;2023-06-26T04:19:13;25.00;99.90
13148;DHT22;6639;50.956;4.242;2023-06-26T04:21:40;25.10;99.90
13148;DHT22;6639;50.956;4.242;2023-06-26T04:24:07;25.20;99.90
13148;DHT22;6639;50.956;4.242;2023-06-26T04:26:34;25.20;99.90
13148;DHT22;6639;50.956;4.242;2023-06-26T04:29:01;25.00;99.90
13148;DHT22;6639;50.956;4.242;2023-06-26T04:31:28;25.10;99.90
13148;DHT22;6639;50.956;4.242;2023-06-26T04:33:57;25.10;99.90
13148;DHT22;6639;50.956;4.242;2023-06-26T04:36:25;25.40;99.90
13148;DHT22;6639;50.956;4.242;2023-06-26T04:38:54;25.60;99.90
13148;DHT22;6639;50.956;4.242;2023-06-26T04:41:21;25.60;99.90
13148;DHT22;6639;50.956;4.242;2023-06-26T04:43:48;25.60;99.90
13148;DHT22;6639;50.956;4.242;2023-06-26T04:46:15;25.20;99.90
13148;DHT22;6639;50.956;4.242;2023-06-26T04:48:42;25.30;99.90
13148;DHT22;6639;50.956;4.242;2023-06-26T04:51:11;25.40;99.90
13148;DHT22;6639;50.956;4.242;2023-06-26T04:53:38;25.60;99.90
13148;DHT22;6639;50.956;4.242;2023-06-26T04:56:05;25.60;99.90
13148;DHT22;6639;50.956;4.242;2023-06-26T04:58:32;25.40;99.90
13148;DHT22;6639;50.956;4.242;2023-06-26T05:00:59;25.50;99.90
13148;DHT22;6639;50.956;4.242;2023-06-26T05:03:26;26.00;99.20
13148;DHT22;6639;50.956;4.242;2023-06-26T05:05:53;26.10;98.80
13148;DHT22;6639;50.956;4.242;2023-06-26T05:08:24;26.30;98.10
13148;DHT22;6639;50.956;4.242;2023-06-26T05:10:52;26.30;97.60
13148;DHT22;6639;50.956;4.242;2023-06-26T05:13:23;26.10;97.50
13148;DHT22;6639;50.956;4.242;2023-06-26T05:15:52;25.80;98.30
13148;DHT22;6639;50.956;4.242;2023-06-26T05:18:19;26.10;97.90
13148;DHT22;6639;50.956;4.242;2023-06-26T05:20:47;26.30;97.60
13148;DHT22;6639;50.956;4.242;2023-06-26T05:23:15;26.40;97.20
13148;DHT22;6639;50.956;4.242;2023-06-26T05:25:44;26.50;96.90
13148;DHT22;6639;50.956;4.242;2023-06-26T05:28:12;26.30;96.90
13148;DHT22;6639;50.956;4.242;2023-06-26T05:30:41;26.70;96.50
13148;DHT22;6639;50.956;4.242;2023-06-26T05:33:11;26.40;96.10
13148;DHT22;6639;50.956;4.242;2023-06-26T05:35:39;25.80;96.70
13148;DHT22;6639;50.956;4.242;2023-06-26T05:38:06;25.90;96.80
13148;DHT22;6639;50.956;4.242;2023-06-26T05:40:33;26.10;96.80
13148;DHT22;6639;50.956;4.242;2023-06-26T05:43:03;26.30;96.20
13148;DHT22;6639;50.956;4.242;2023-06-26T05:45:30;26.50;95.90
13148;DHT22;6639;50.956;4.242;2023-06-26T05:47:57;26.80;95.50
13148;DHT22;6639;50.956;4.242;2023-06-26T05:50:25;27.10;95.10
13148;DHT22;6639;50.956;4.242;2023-06-26T05:52:52;27.20;94.80
13148;DHT22;6639;50.956;4.242;2023-06-26T05:55:20;27.10;94.50
13148;DHT22;6639;50.956;4.242;2023-06-26T05:57:48;27.30;94.60
13148;DHT22;6639;50.956;4.242;2023-06-26T06:00:19;27.50;94.00
13148;DHT22;6639;50.956;4.242;2023-06-26T06:02:46;27.40;94.00
13148;DHT22;6639;50.956;4.242;2023-06-26T06:05:13;27.30;93.80
13148;DHT22;6639;50.956;4.242;2023-06-26T06:07:40;27.40;94.20
13148;DHT22;6639;50.956;4.242;2023-06-26T06:10:07;27.20;93.90
13148;DHT22;6639;50.956;4.242;2023-06-26T06:12:34;27.30;94.00
13148;DHT22;6639;50.956;4.242;2023-06-26T06:15:01;27.70;93.50
13148;DHT22;6639;50.956;4.242;2023-06-26T06:17:29;28.00;93.10
13148;DHT22;6639;50.956;4.242;2023-06-26T06:19:56;28.00;93.10
13148;DHT22;6639;50.956;4.242;2023-06-26T06:22:23;28.10;92.40
13148;DHT22;6639;50.956;4.242;2023-06-26T06:24:51;28.00;92.50
13148;DHT22;6639;50.956;4.242;2023-06-26T06:39:24;27.70;92.40
13148;DHT22;6639;50.956;4.242;2023-06-26T06:41:51;28.40;92.10
13148;DHT22;6639;50.956;4.242;2023-06-26T06:44:18;28.60;91.90
13148;DHT22;6639;50.956;4.242;2023-06-26T06:46:45;28.80;91.00
13148;DHT22;6639;50.956;4.242;2023-06-26T06:49:12;28.70;91.40
13148;DHT22;6639;50.956;4.242;2023-06-26T06:51:39;28.90;90.90
13148;DHT22;6639;50.956;4.242;2023-06-26T06:54:06;28.90;91.20
13148;DHT22;6639;50.956;4.242;2023-06-26T06:56:34;29.40;90.80
13148;DHT22;6639;50.956;4.242;2023-06-26T06:59:01;28.70;90.80
13148;DHT22;6639;50.956;4.242;2023-06-26T07:01:28;29.00;90.80
13148;DHT22;6639;50.956;4.242;2023-06-26T07:03:55;29.10;90.70
13148;DHT22;6639;50.956;4.242;2023-06-26T07:06:23;29.30;90.60
13148;DHT22;6639;50.956;4.242;2023-06-26T07:08:50;29.50;90.20
13148;DHT22;6639;50.956;4.242;2023-06-26T07:11:17;29.60;89.80
13148;DHT22;6639;50.956;4.242;2023-06-26T07:13:45;29.40;89.70
13148;DHT22;6639;50.956;4.242;2023-06-26T07:16:12;29.20;89.90
13148;DHT22;6639;50.956;4.242;2023-06-26T07:18:40;29.10;90.70
13148;DHT22;6639;50.956;4.242;2023-06-26T07:21:09;29.50;90.00
13148;DHT22;6639;50.956;4.242;2023-06-26T07:23:35;29.70;89.60
13148;DHT22;6639;50.956;4.242;2023-06-26T07:26:02;29.70;89.60
13148;DHT22;6639;50.956;4.242;2023-06-26T07:28:29;29.80;89.60
13148;DHT22;6639;50.956;4.242;2023-06-26T07:30:57;30.40;90.00
13148;DHT22;6639;50.956;4.242;2023-06-26T07:33:24;29.80;88.50
13148;DHT22;6639;50.956;4.242;2023-06-26T07:35:51;29.60;89.30
13148;DHT22;6639;50.956;4.242;2023-06-26T07:38:18;29.50;89.40
13148;DHT22;6639;50.956;4.242;2023-06-26T07:40:45;29.60;89.50
13148;DHT22;6639;50.956;4.242;2023-06-26T07:43:12;29.70;90.20
13148;DHT22;6639;50.956;4.242;2023-06-26T07:45:39;30.20;89.30
13148;DHT22;6639;50.956;4.242;2023-06-26T07:48:07;30.40;88.70
13148;DHT22;6639;50.956;4.242;2023-06-26T07:50:35;30.60;88.60
13148;DHT22;6639;50.956;4.242;2023-06-26T07:53:02;30.70;88.90
13148;DHT22;6639;50.956;4.242;2023-06-26T07:55:31;30.50;87.80
13148;DHT22;6639;50.956;4.242;2023-06-26T07:57:58;30.30;88.80
13148;DHT22;6639;50.956;4.242;2023-06-26T08:00:24;30.50;88.90
13148;DHT22;6639;50.956;4.242;2023-06-26T08:02:51;31.00;87.70
13148;DHT22;6639;50.956;4.242;2023-06-26T08:05:20;31.10;86.30
13148;DHT22;6639;50.956;4.242;2023-06-26T08:07:47;30.90;86.50
13148;DHT22;6639;50.956;4.242;2023-06-26T08:10:13;31.20;87.10
13148;DHT22;6639;50.956;4.242;2023-06-26T08:12:40;31.10;86.60
13148;DHT22;6639;50.956;4.242;2023-06-26T08:15:10;31.30;86.80
13148;DHT22;6639;50.956;4.242;2023-06-26T08:17:37;31.20;85.90
13148;DHT22;6639;50.956;4.242;2023-06-26T08:20:05;31.50;86.80
13148;DHT22;6639;50.956;4.242;2023-06-26T08:22:35;31.70;86.10
13148;DHT22;6639;50.956;4.242;2023-06-26T08:25:03;31.70;84.70
13148;DHT22;6639;50.956;4.242;2023-06-26T08:27:31;31.30;85.50
13148;DHT22;6639;50.956;4.242;2023-06-26T08:29:58;30.90;86.40
13148;DHT22;6639;50.956;4.242;2023-06-26T08:32:25;31.50;87.30
13148;DHT22;6639;50.956;4.242;2023-06-26T08:34:52;31.80;85.10
13148;DHT22;6639;50.956;4.242;2023-06-26T08:37:19;31.50;83.80
13148;DHT22;6639;50.956;4.242;2023-06-26T08:39:48;31.50;82.10
13148;DHT22;6639;50.956;4.242;2023-06-26T08:42:15;31.20;82.80
13148;DHT22;6639;50.956;4.242;2023-06-26T08:44:42;31.40;83.80
13148;DHT22;6639;50.956;4.242;2023-06-26T08:47:11;31.70;82.30
13148;DHT22;6639;50.956;4.242;2023-06-26T08:49:46;31.50;81.00
13148;DHT22;6639;50.956;4.242;2023-06-26T08:52:17;31.70;82.90
13148;DHT22;6639;50.956;4.242;2023-06-26T08:54:48;32.20;82.40
13148;DHT22;6639;50.956;4.242;2023-06-26T08:57:18;32.10;81.00
13148;DHT22;6639;50.956;4.242;2023-06-26T08:59:46;32.40;80.40
13148;DHT22;6639;50.956;4.242;2023-06-26T09:02:14;32.30;79.60
13148;DHT22;6639;50.956;4.242;2023-06-26T09:04:41;31.80;80.10
13148;DHT22;6639;50.956;4.242;2023-06-26T09:07:08;31.70;80.60
13148;DHT22;6639;50.956;4.242;2023-06-26T09:09:35;31.80;80.50
13148;DHT22;6639;50.956;4.242;2023-06-26T09:12:05;31.60;79.40
13148;DHT22;6639;50.956;4.242;2023-06-26T09:14:32;32.00;80.00
13148;DHT22;6639;50.956;4.242;2023-06-26T09:16:59;31.90;79.70
13148;DHT22;6639;50.956;4.242;2023-06-26T09:19:27;31.90;78.30
13148;DHT22;6639;50.956;4.242;2023-06-26T09:21:54;32.00;77.80
13148;DHT22;6639;50.956;4.242;2023-06-26T09:24:22;31.70;77.90
13148;DHT22;6639;50.956;4.242;2023-06-26T09:26:50;31.80;78.90
13148;DHT22;6639;50.956;4.242;2023-06-26T09:29:19;31.60;76.20
13148;DHT22;6639;50.956;4.242;2023-06-26T09:31:46;31.80;76.80
13148;DHT22;6639;50.956;4.242;2023-06-26T09:34:13;31.90;76.20
13148;DHT22;6639;50.956;4.242;2023-06-26T09:36:40;31.60;75.10
13148;DHT22;6639;50.956;4.242;2023-06-26T09:39:12;31.60;74.40
13148;DHT22;6639;50.956;4.242;2023-06-26T09:41:41;31.80;74.20
13148;DHT22;6639;50.956;4.242;2023-06-26T09:44:10;32.10;75.00
13148;DHT22;6639;50.956;4.242;2023-06-26T09:46:39;32.20;74.50
13148;DHT22;6639;50.956;4.242;2023-06-26T09:49:07;32.10;73.90
13148;DHT22;6639;50.956;4.242;2023-06-26T09:51:36;32.00;73.10
13148;DHT22;6639;50.956;4.242;2023-06-26T09:54:04;31.90;74.60
13148;DHT22;6639;50.956;4.242;2023-06-26T09:56:32;32.00;72.70
13148;DHT22;6639;50.956;4.242;2023-06-26T09:59:02;32.20;73.80
13148;DHT22;6639;50.956;4.242;2023-06-26T10:01:29;32.10;73.40
13148;DHT22;6639;50.956;4.242;2023-06-26T10:03:58;31.90;72.70
13148;DHT22;6639;50.956;4.242;2023-06-26T10:06:28;31.90;74.20
13148;DHT22;6639;50.956;4.242;2023-06-26T10:09:00;32.40;73.00
13148;DHT22;6639;50.956;4.242;2023-06-26T10:11:31;32.30;73.30
13148;DHT22;6639;50.956;4.242;2023-06-26T10:14:00;32.20;72.80
13148;DHT22;6639;50.956;4.242;2023-06-26T10:16:28;32.20;71.60
13148;DHT22;6639;50.956;4.242;2023-06-26T10:19:03;32.20;71.40
13148;DHT22;6639;50.956;4.242;2023-06-26T10:21:34;32.10;71.90
13148;DHT22;6639;50.956;4.242;2023-06-26T10:24:03;31.90;73.10
13148;DHT22;6639;50.956;4.242;2023-06-26T10:26:31;31.80;72.50
13148;DHT22;6639;50.956;4.242;2023-06-26T10:28:58;32.00;72.00
13148;DHT22;6639;50.956;4.242;2023-06-26T10:31:27;32.00;71.60
13148;DHT22;6639;50.956;4.242;2023-06-26T10:33:55;31.90;71.70
13148;DHT22;6639;50.956;4.242;2023-06-26T10:36:30;31.80;70.90
13148;DHT22;6639;50.956;4.242;2023-06-26T10:38:58;31.80;70.80
13148;DHT22;6639;50.956;4.242;2023-06-26T10:41:25;31.80;70.90
13148;DHT22;6639;50.956;4.242;2023-06-26T10:44:09;31.80;72.50
13148;DHT22;6639;50.956;4.242;2023-06-26T10:46:49;32.10;70.70
13148;DHT22;6639;50.956;4.242;2023-06-26T10:49:18;32.50;70.60
13148;DHT22;6639;50.956;4.242;2023-06-26T10:51:50;32.40;70.50
13148;DHT22;6639;50.956;4.242;2023-06-26T10:54:18;32.40;69.40
13148;DHT22;6639;50.956;4.242;2023-06-26T10:56:46;32.40;68.30
13148;DHT22;6639;50.956;4.242;2023-06-26T10:59:15;32.20;67.10
13148;DHT22;6639;50.956;4.242;2023-06-26T11:01:43;32.40;68.10
13148;DHT22;6639;50.956;4.242;2023-06-26T11:04:11;32.40;68.10
13148;DHT22;6639;50.956;4.242;2023-06-26T11:06:41;32.50;68.10
13148;DHT22;6639;50.956;4.242;2023-06-26T11:09:15;32.60;67.90
13148;DHT22;6639;50.956;4.242;2023-06-26T11:11:58;32.40;67.30
13148;DHT22;6639;50.956;4.242;2023-06-26T11:14:30;32.50;70.10
13148;DHT22;6639;50.956;4.242;2023-06-26T11:16:58;32.80;69.80
13148;DHT22;6639;50.956;4.242;2023-06-26T11:19:26;32.40;68.90
13148;DHT22;6639;50.956;4.242;2023-06-26T11:22:07;32.40;67.30
13148;DHT22;6639;50.956;4.242;2023-06-26T11:24:36;32.00;65.90
13148;DHT22;6639;50.956;4.242;2023-06-26T11:27:04;32.10;67.60
13148;DHT22;6639;50.956;4.242;2023-06-26T11:29:32;32.30;67.80
13148;DHT22;6639;50.956;4.242;2023-06-26T11:32:04;32.40;67.70
13148;DHT22;6639;50.956;4.242;2023-06-26T11:34:32;32.70;66.90
13148;DHT22;6639;50.956;4.242;2023-06-26T11:37:00;32.50;65.70
13148;DHT22;6639;50.956;4.242;2023-06-26T11:39:28;32.40;66.60
13148;DHT22;6639;50.956;4.242;2023-06-26T11:41:57;32.30;66.10
13148;DHT22;6639;50.956;4.242;2023-06-26T11:44:24;32.10;65.20
13148;DHT22;6639;50.956;4.242;2023-06-26T11:46:56;31.90;66.20
13148;DHT22;6639;50.956;4.242;2023-06-26T11:49:23;31.40;67.70
13148;DHT22;6639;50.956;4.242;2023-06-26T11:51:52;31.20;68.70
13148;DHT22;6639;50.956;4.242;2023-06-26T11:54:25;31.10;69.40
13148;DHT22;6639;50.956;4.242;2023-06-26T11:57:05;31.10;70.50
13148;DHT22;6639;50.956;4.242;2023-06-26T11:59:34;31.40;69.60
13148;DHT22;6639;50.956;4.242;2023-06-26T12:02:05;31.40;69.20
13148;DHT22;6639;50.956;4.242;2023-06-26T12:04:33;31.70;69.10
13148;DHT22;6639;50.956;4.242;2023-06-26T12:07:01;31.80;68.10
13148;DHT22;6639;50.956;4.242;2023-06-26T12:09:30;31.80;67.30
13148;DHT22;6639;50.956;4.242;2023-06-26T12:12:01;31.80;66.90
13148;DHT22;6639;50.956;4.242;2023-06-26T12:14:28;31.70;66.10
13148;DHT22;6639;50.956;4.242;2023-06-26T12:16:55;31.40;67.20
13148;DHT22;6639;50.956;4.242;2023-06-26T12:19:25;31.50;68.60
13148;DHT22;6639;50.956;4.242;2023-06-26T12:21:53;31.40;67.90
13148;DHT22;6639;50.956;4.242;2023-06-26T12:24:23;31.40;68.40
13148;DHT22;6639;50.956;4.242;2023-06-26T12:26:52;31.80;67.90
13148;DHT22;6639;50.956;4.242;2023-06-26T12:29:30;31.40;67.50
13148;DHT22;6639;50.956;4.242;2023-06-26T12:31:57;31.20;67.70
13148;DHT22;6639;50.956;4.242;2023-06-26T12:34:27;31.30;67.50
13148;DHT22;6639;50.956;4.242;2023-06-26T12:36:59;31.10;68.90
13148;DHT22;6639;50.956;4.242;2023-06-26T12:39:25;31.50;70.40
13148;DHT22;6639;50.956;4.242;2023-06-26T12:41:55;32.00;69.40
13148;DHT22;6639;50.956;4.242;2023-06-26T12:44:26;32.20;67.10
13148;DHT22;6639;50.956;4.242;2023-06-26T12:46:55;32.00;67.50
13148;DHT22;6639;50.956;4.242;2023-06-26T12:49:33;32.00;67.20
13148;DHT22;6639;50.956;4.242;2023-06-26T12:52:01;32.10;68.40
13148;DHT22;6639;50.956;4.242;2023-06-26T12:54:28;31.90;70.50
13148;DHT22;6639;50.956;4.242;2023-06-26T12:56:55;32.40;67.90
13148;DHT22;6639;50.956;4.242;2023-06-26T12:59:24;32.30;66.40
13148;DHT22;6639;50.956;4.242;2023-06-26T13:01:51;32.20;67.90
13148;DHT22;6639;50.956;4.242;2023-06-26T13:04:18;32.00;67.30
13148;DHT22;6639;50.956;4.242;2023-06-26T13:06:45;31.90;66.90
13148;DHT22;6639;50.956;4.242;2023-06-26T13:09:12;31.40;68.10
13148;DHT22;6639;50.956;4.242;2023-06-26T13:11:39;31.30;69.00
13148;DHT22;6639;50.956;4.242;2023-06-26T13:14:06;31.30;69.30
13148;DHT22;6639;50.956;4.242;2023-06-26T13:16:35;31.30;67.60
13148;DHT22;6639;50.956;4.242;2023-06-26T13:19:02;31.60;68.40
13148;DHT22;6639;50.956;4.242;2023-06-26T13:21:29;31.90;68.20
13148;DHT22;6639;50.956;4.242;2023-06-26T13:23:56;31.80;66.80
13148;DHT22;6639;50.956;4.242;2023-06-26T13:26:25;31.80;67.40
13148;DHT22;6639;50.956;4.242;2023-06-26T13:28:54;32.10;67.60
13148;DHT22;6639;50.956;4.242;2023-06-26T13:31:22;32.30;66.80
13148;DHT22;6639;50.956;4.242;2023-06-26T13:33:50;32.40;69.20
13148;DHT22;6639;50.956;4.242;2023-06-26T13:36:20;32.40;69.20
13148;DHT22;6639;50.956;4.242;2023-06-26T13:38:48;32.10;67.00
13148;DHT22;6639;50.956;4.242;2023-06-26T13:41:21;31.90;67.20
13148;DHT22;6639;50.956;4.242;2023-06-26T13:43:48;32.50;67.30
13148;DHT22;6639;50.956;4.242;2023-06-26T13:46:16;32.60;67.70
13148;DHT22;6639;50.956;4.242;2023-06-26T13:48:43;32.70;66.50
13148;DHT22;6639;50.956;4.242;2023-06-26T13:51:11;32.90;67.40
13148;DHT22;6639;50.956;4.242;2023-06-26T13:53:38;33.10;67.30
13148;DHT22;6639;50.956;4.242;2023-06-26T13:56:05;33.30;65.70
13148;DHT22;6639;50.956;4.242;2023-06-26T13:58:35;32.80;66.30
13148;DHT22;6639;50.956;4.242;2023-06-26T14:01:02;32.60;66.10
13148;DHT22;6639;50.956;4.242;2023-06-26T14:03:29;32.20;66.10
13148;DHT22;6639;50.956;4.242;2023-06-26T14:05:56;32.00;67.00
13148;DHT22;6639;50.956;4.242;2023-06-26T14:08:25;31.60;67.00
13148;DHT22;6639;50.956;4.242;2023-06-26T14:10:51;31.90;68.90
13148;DHT22;6639;50.956;4.242;2023-06-26T14:13:18;32.30;67.20
13148;DHT22;6639;50.956;4.242;2023-06-26T14:15:45;32.70;67.50
13148;DHT22;6639;50.956;4.242;2023-06-26T14:18:12;32.60;66.20
13148;DHT22;6639;50.956;4.242;2023-06-26T14:20:40;32.40;67.20
13148;DHT22;6639;50.956;4.242;2023-06-26T14:23:07;32.20;66.40
13148;DHT22;6639;50.956;4.242;2023-06-26T14:25:35;32.40;66.70
13148;DHT22;6639;50.956;4.242;2023-06-26T14:28:02;31.90;65.30
13148;DHT22;6639;50.956;4.242;2023-06-26T14:30:29;31.50;66.10
13148;DHT22;6639;50.956;4.242;2023-06-26T14:32:56;30.90;67.30
13148;DHT22;6639;50.956;4.242;2023-06-26T14:35:22;30.70;68.30
13148;DHT22;6639;50.956;4.242;2023-06-26T14:37:49;30.60;69.00
13148;DHT22;6639;50.956;4.242;2023-06-26T14:40:16;30.60;69.60
13148;DHT22;6639;50.956;4.242;2023-06-26T14:42:45;30.70;69.80
13148;DHT22;6639;50.956;4.242;2023-06-26T14:45:12;30.80;69.10
13148;DHT22;6639;50.956;4.242;2023-06-26T14:47:39;31.20;69.50
13148;DHT22;6639;50.956;4.242;2023-06-26T14:50:07;31.10;68.20
13148;DHT22;6639;50.956;4.242;2023-06-26T14:52:34;31.20;67.90
13148;DHT22;6639;50.956;4.242;2023-06-26T14:55:01;31.20;69.50
13148;DHT22;6639;50.956;4.242;2023-06-26T14:57:28;31.10;68.70
13148;DHT22;6639;50.956;4.242;2023-06-26T14:59:57;30.90;68.60
13148;DHT22;6639;50.956;4.242;2023-06-26T15:02:24;31.00;67.80
13148;DHT22;6639;50.956;4.242;2023-06-26T15:04:51;31.60;67.90
13148;DHT22;6639;50.956;4.242;2023-06-26T15:07:18;31.60;68.20
13148;DHT22;6639;50.956;4.242;2023-06-26T15:09:44;31.30;66.70
13148;DHT22;6639;50.956;4.242;2023-06-26T15:12:11;31.10;67.30
13148;DHT22;6639;50.956;4.242;2023-06-26T15:14:38;31.10;67.60
13148;DHT22;6639;50.956;4.242;2023-06-26T15:17:07;31.00;67.60
13148;DHT22;6639;50.956;4.242;2023-06-26T15:19:34;30.90;67.60
13148;DHT22;6639;50.956;4.242;2023-06-26T15:22:01;31.00;67.20
13148;DHT22;6639;50.956;4.242;2023-06-26T15:24:28;31.20;67.40
13148;DHT22;6639;50.956;4.242;2023-06-26T15:26:55;31.20;66.30
13148;DHT22;6639;50.956;4.242;2023-06-26T15:29:22;31.50;65.50
13148;DHT22;6639;50.956;4.242;2023-06-26T15:31:49;31.80;65.80
13148;DHT22;6639;50.956;4.242;2023-06-26T15:34:17;32.00;65.90
13148;DHT22;6639;50.956;4.242;2023-06-26T15:36:44;31.80;65.50
13148;DHT22;6639;50.956;4.242;2023-06-26T15:39:11;31.80;63.60
13148;DHT22;6639;50.956;4.242;2023-06-26T15:41:38;31.70;63.50
13148;DHT22;6639;50.956;4.242;2023-06-26T15:44:05;31.60;64.70
13148;DHT22;6639;50.956;4.242;2023-06-26T15:46:32;31.70;64.60
13148;DHT22;6639;50.956;4.242;2023-06-26T15:48:58;31.70;65.20
13148;DHT22;6639;50.956;4.242;2023-06-26T15:51:27;31.30;64.70
13148;DHT22;6639;50.956;4.242;2023-06-26T15:53:54;31.50;65.50
13148;DHT22;6639;50.956;4.242;2023-06-26T15:56:22;31.40;66.10
13148;DHT22;6639;50.956;4.242;2023-06-26T15:58:48;31.20;65.50
13148;DHT22;6639;50.956;4.242;2023-06-26T16:01:15;31.10;66.50